Portada
METAR-TAF:

METAR-TAF

Aeropuertos :

San Antonio del Táchira, Venezuela

Aeropuerto Internacional Juan Vicente Gómez

latitud: 07-51N, longitud: 072-27W, altitud: 377 m

Observación

El informe se hizo hace 7 horas y 1 minutos, a las 19:00 UTC
Temperatura 34°C
Humedad 28%
Presión 1012 hPa
Visibilidad 10 km o más
Escasas nubes a una altura de 2000 ft

METAR: SVSA 271900Z /////KT 9999 FEW020 34/13 Q1012

Hora: 22:01 (02:01 UTC)

Pronóstico

El informe se hizo hace 4 horas y 1 minutos, a las 22:00 UTC
Pronóstico válido del 28 a las 00 UTC al 29 a las 00 UTC
Viento 8 kt del sur-sureste
Visibilidad 10 km o más
Escasas nubes a una altura de 1600 ft
Evolucionando progresivamente
del 28 a las 00 UTC al 28 a las 04 UTC
Viento 5 kt del sureste
Nubes dispersas a una altura de 2000 ft

TAF: SVSA 272200Z 2800/2900 15008KT 9999 FEW016 TX33/18Z TN24/08Z BECMG 2800/2804 14005KT SCT020

Observaciones y pronósticos meteorológicos de más de 4000 aeropuertos (mensajes METAR y TAF).

Los puntos amarillos y rojos representan las estaciones disponibles.

Ponga el ratón en el punto deseado para ver el nombre de la estación.

Haga clic para ver las observaciones y los pronósticos meteorológicos.

Para cambiar el mapa : haga clic en los botones verdes con una cruz de color negro para hacer un zoom, en el botón verde con un guión para alejar o en las flechas verdes para mapas adyacentes.


METAR-TAF: